createdAt,value
2022-12-01T00:02:06.077Z,11.73
2022-12-01T00:04:37.983Z,11.50
2022-12-01T00:07:11.728Z,11.02
2022-12-01T00:09:55.292Z,11.75
2022-12-01T00:12:26.302Z,12.18
2022-12-01T00:15:01.268Z,10.63
2022-12-01T00:17:33.959Z,10.18
2022-12-01T00:20:05.507Z,10.23
2022-12-01T00:22:39.551Z,10.15
2022-12-01T00:25:11.204Z,9.35
2022-12-01T00:27:42.994Z,9.73
2022-12-01T00:30:16.821Z,9.50
2022-12-01T00:32:48.916Z,10.02
2022-12-01T00:35:21.325Z,10.45
2022-12-01T00:37:55.833Z,11.55
2022-12-01T00:40:27.359Z,9.90
2022-12-01T00:42:59.886Z,10.32
2022-12-01T00:45:31.581Z,9.82
2022-12-01T00:48:03.094Z,10.35
2022-12-01T00:50:34.673Z,9.68
2022-12-01T00:53:09.654Z,10.13
2022-12-01T00:55:41.451Z,10.13
2022-12-01T00:58:14.586Z,10.52
2022-12-01T01:00:47.010Z,10.25
2022-12-01T01:03:18.041Z,9.40
2022-12-01T01:05:49.083Z,9.60
2022-12-01T01:08:23.275Z,9.57
2022-12-01T01:10:54.641Z,9.55
2022-12-01T01:13:26.423Z,10.07
2022-12-01T01:16:02.662Z,9.45
2022-12-01T01:18:35.527Z,9.93
2022-12-01T01:21:09.696Z,9.68
2022-12-01T01:23:44.870Z,10.30
2022-12-01T01:26:18.806Z,10.45
2022-12-01T01:28:51.543Z,9.88
2022-12-01T01:31:27.462Z,8.90
2022-12-01T01:34:00.082Z,9.23
2022-12-01T01:36:31.513Z,9.82
2022-12-01T01:39:05.905Z,10.68
2022-12-01T01:41:37.723Z,10.93
2022-12-01T01:44:39.527Z,9.75
2022-12-01T01:47:10.769Z,10.52
2022-12-01T01:49:43.093Z,9.95
2022-12-01T01:52:14.619Z,10.35
2022-12-01T01:54:52.414Z,9.68
2022-12-01T01:57:28.822Z,10.48
2022-12-01T02:00:05.230Z,9.25
2022-12-01T02:02:47.047Z,9.73
2022-12-01T02:05:26.384Z,10.25
2022-12-01T02:08:01.756Z,9.13
2022-12-01T02:10:46.480Z,9.07
2022-12-01T02:13:29.241Z,10.40
2022-12-01T02:16:08.929Z,9.70
2022-12-01T02:18:49.333Z,9.50
2022-12-01T02:21:40.705Z,8.57
2022-12-01T02:24:47.422Z,9.40
2022-12-01T02:27:36.928Z,8.95
2022-12-01T02:30:14.467Z,9.00
2022-12-01T02:33:10.158Z,10.25
2022-12-01T02:35:47.560Z,8.57
2022-12-01T02:38:25.582Z,9.38
2022-12-01T02:41:02.652Z,9.20
2022-12-01T02:46:13.567Z,9.68
2022-12-01T02:48:52.270Z,9.95
2022-12-01T02:51:29.327Z,10.35
2022-12-01T02:54:02.430Z,11.27
2022-12-01T02:56:34.357Z,10.35
2022-12-01T02:59:05.772Z,9.43
2022-12-01T03:01:53.167Z,10.00
2022-12-01T03:07:24.534Z,8.55
2022-12-01T03:10:04.432Z,9.55
2022-12-01T03:12:42.735Z,10.52
2022-12-01T03:15:22.441Z,9.05
2022-12-01T03:18:02.057Z,9.35
2022-12-01T03:20:38.969Z,9.55
2022-12-01T03:25:49.183Z,10.20
2022-12-01T03:28:24.070Z,10.00
2022-12-01T03:30:59.169Z,10.43
2022-12-01T03:33:37.243Z,9.75
2022-12-01T03:36:15.315Z,10.15
2022-12-01T03:38:53.665Z,9.98
2022-12-01T03:41:31.717Z,10.75
2022-12-01T03:44:11.604Z,10.65
2022-12-01T03:46:50.023Z,10.02
2022-12-01T03:49:21.980Z,10.40
2022-12-01T03:52:03.676Z,9.95
2022-12-01T03:54:47.422Z,9.35
2022-12-01T03:57:21.787Z,9.25
2022-12-01T03:59:53.348Z,10.20
2022-12-01T04:02:27.878Z,9.95
2022-12-01T04:04:59.225Z,9.85
2022-12-01T04:07:30.766Z,9.77
2022-12-01T04:10:04.759Z,9.52
2022-12-01T04:12:33.578Z,9.50
2022-12-01T04:15:08.661Z,9.45
2022-12-01T04:17:40.194Z,10.25
2022-12-01T04:20:13.199Z,9.90
2022-12-01T04:22:44.244Z,9.65
2022-12-01T04:25:18.064Z,9.52
2022-12-01T04:27:49.188Z,9.73
2022-12-01T04:30:21.165Z,9.57
2022-12-01T04:32:52.218Z,10.35
2022-12-01T04:35:23.712Z,9.63
2022-12-01T04:37:55.060Z,11.25
2022-12-01T04:40:29.464Z,11.43
2022-12-01T04:43:00.976Z,10.90
2022-12-01T04:45:32.909Z,10.57
2022-12-01T04:48:04.840Z,10.27
2022-12-01T04:50:35.901Z,9.18
2022-12-01T04:53:08.362Z,10.05
2022-12-01T04:55:44.578Z,10.32
2022-12-01T04:58:15.585Z,9.35
2022-12-01T05:00:47.456Z,8.45
2022-12-01T05:03:20.143Z,8.88
2022-12-01T05:05:51.951Z,9.55
2022-12-01T05:08:23.301Z,9.75
2022-12-01T05:10:59.876Z,9.93
2022-12-01T05:13:31.958Z,10.30
2022-12-01T05:16:09.215Z,10.25
2022-12-01T05:18:40.621Z,9.38
2022-12-01T05:21:12.777Z,9.52
2022-12-01T05:23:44.911Z,9.30
2022-12-01T05:26:18.849Z,9.20
2022-12-01T05:28:49.852Z,9.98
2022-12-01T05:31:20.884Z,10.02
2022-12-01T05:33:51.811Z,10.48
2022-12-01T05:36:23.189Z,10.65
2022-12-01T05:38:55.162Z,9.68
2022-12-01T05:41:29.473Z,9.88
2022-12-01T05:44:00.695Z,10.25
2022-12-01T05:46:31.690Z,10.50
2022-12-01T05:49:02.618Z,8.75
2022-12-01T05:51:33.679Z,9.70
2022-12-01T05:54:05.530Z,10.18
2022-12-01T05:56:40.166Z,9.95
2022-12-01T05:59:11.271Z,10.55
2022-12-01T06:01:42.535Z,10.25
2022-12-01T06:04:13.876Z,10.80
2022-12-01T06:06:45.378Z,11.07
2022-12-01T06:09:16.428Z,10.75
2022-12-01T06:11:52.487Z,11.18
2022-12-01T06:14:24.073Z,10.48
2022-12-01T06:16:55.464Z,11.10
2022-12-01T06:19:26.567Z,11.52
2022-12-01T06:21:57.538Z,10.85
2022-12-01T06:24:28.769Z,11.68
2022-12-01T06:27:03.323Z,11.07
2022-12-01T06:29:40.580Z,10.43
2022-12-01T06:32:13.727Z,11.52
2022-12-01T06:34:44.741Z,10.75
2022-12-01T06:37:17.087Z,11.23
2022-12-01T06:39:48.728Z,10.90
2022-12-01T06:42:22.975Z,10.85
2022-12-01T06:44:54.225Z,10.65
2022-12-01T06:47:25.123Z,11.23
2022-12-01T06:49:56.736Z,10.93
2022-12-01T06:52:27.836Z,10.52
2022-12-01T06:54:59.181Z,11.55
2022-12-01T06:57:33.462Z,11.07
2022-12-01T07:00:05.203Z,11.32
2022-12-01T07:02:36.874Z,11.88
2022-12-01T07:05:09.272Z,11.05
2022-12-01T07:07:41.197Z,11.75
2022-12-01T07:10:14.538Z,10.93
2022-12-01T07:12:49.321Z,11.75
2022-12-01T07:15:21.286Z,11.57
2022-12-01T07:17:52.737Z,11.25
2022-12-01T07:20:24.123Z,12.63
2022-12-01T07:22:57.214Z,11.80
2022-12-01T07:25:28.335Z,11.55
2022-12-01T07:28:02.776Z,11.77
2022-12-01T07:30:34.236Z,13.13
2022-12-01T07:33:07.377Z,11.75
2022-12-01T07:35:39.844Z,12.18
2022-12-01T07:38:11.974Z,11.85
2022-12-01T07:40:43.699Z,11.88
2022-12-01T07:43:17.822Z,16.45
2022-12-01T07:45:49.800Z,12.30
2022-12-01T07:48:21.951Z,11.38
2022-12-01T07:50:53.522Z,11.98
2022-12-01T07:53:25.122Z,12.25
2022-12-01T07:55:56.121Z,19.30
2022-12-01T07:58:29.967Z,17.83
2022-12-01T08:01:01.566Z,16.02
2022-12-01T08:03:32.971Z,13.02
2022-12-01T08:06:05.640Z,13.50
2022-12-01T08:08:37.774Z,15.00
2022-12-01T08:11:10.677Z,12.38
2022-12-01T08:13:46.101Z,12.90
2022-12-01T08:16:20.614Z,14.43
2022-12-01T08:18:52.743Z,12.45
2022-12-01T08:21:26.093Z,12.57
2022-12-01T08:23:58.399Z,12.40
2022-12-01T08:26:30.948Z,9.63
2022-12-01T08:29:05.337Z,10.38
2022-12-01T08:31:40.444Z,9.30
2022-12-01T08:34:11.870Z,10.88
2022-12-01T08:36:43.328Z,10.32
2022-12-01T08:39:16.306Z,10.38
2022-12-01T08:41:47.874Z,9.68
2022-12-01T08:44:23.747Z,9.80
2022-12-01T08:46:56.043Z,9.20
2022-12-01T08:49:27.519Z,8.90
2022-12-01T08:51:58.388Z,9.73
2022-12-01T08:54:29.479Z,8.20
2022-12-01T08:57:00.994Z,8.45
2022-12-01T08:59:35.190Z,8.68
2022-12-01T09:02:11.174Z,8.48
2022-12-01T09:04:42.276Z,7.13
2022-12-01T09:07:15.490Z,7.50
2022-12-01T09:09:47.923Z,8.32
2022-12-01T09:12:19.505Z,9.10
2022-12-01T09:14:53.505Z,9.52
2022-12-01T09:17:24.824Z,8.63
2022-12-01T09:19:56.399Z,9.52
2022-12-01T09:22:27.732Z,9.48
2022-12-01T09:24:58.591Z,9.90
2022-12-01T09:27:29.925Z,10.13
2022-12-01T09:30:04.017Z,10.40
2022-12-01T09:32:35.362Z,10.00
2022-12-01T09:35:06.705Z,10.32
2022-12-01T09:37:37.520Z,9.88
2022-12-01T09:40:10.020Z,10.70
2022-12-01T09:42:41.836Z,10.73
2022-12-01T09:45:28.849Z,11.02
2022-12-01T09:48:02.770Z,11.50
2022-12-01T09:50:34.635Z,11.18
2022-12-01T09:53:10.631Z,12.93
2022-12-01T09:55:44.427Z,17.20
2022-12-01T09:58:20.842Z,14.77
2022-12-01T10:00:56.028Z,15.90
2022-12-01T10:03:36.602Z,11.85
2022-12-01T10:06:27.364Z,12.45
2022-12-01T10:09:08.314Z,12.93
2022-12-01T10:11:42.145Z,25.15
2022-12-01T10:14:20.191Z,20.88
2022-12-01T10:17:03.825Z,12.80
2022-12-01T10:19:42.859Z,11.77
2022-12-01T10:22:46.707Z,12.35
2022-12-01T10:25:25.702Z,12.15
2022-12-01T10:28:08.289Z,11.63
2022-12-01T10:30:44.048Z,13.50
2022-12-01T10:33:28.266Z,13.80
2022-12-01T10:36:00.504Z,12.98
2022-12-01T10:38:33.622Z,13.40
2022-12-01T10:41:08.415Z,15.23
2022-12-01T10:43:45.604Z,13.55
2022-12-01T10:46:28.311Z,13.05
2022-12-01T10:49:10.088Z,11.50
2022-12-01T10:51:54.005Z,13.00
2022-12-01T10:54:26.503Z,11.93
2022-12-01T10:57:00.600Z,13.80
2022-12-01T10:59:36.651Z,12.77
2022-12-01T11:02:17.697Z,11.77
2022-12-01T11:04:57.154Z,12.75
2022-12-01T11:07:32.018Z,12.18
2022-12-01T11:10:18.771Z,11.68
2022-12-01T11:12:58.891Z,12.20
2022-12-01T11:15:33.365Z,13.10
2022-12-01T11:18:06.592Z,13.93
2022-12-01T11:20:42.696Z,14.45
2022-12-01T11:23:28.738Z,13.30
2022-12-01T11:26:04.822Z,14.00
2022-12-01T11:28:38.570Z,15.93
2022-12-01T11:31:12.140Z,16.08
2022-12-01T11:33:51.241Z,15.73
2022-12-01T11:36:39.634Z,15.93
2022-12-01T11:39:24.690Z,17.35
2022-12-01T11:42:00.104Z,15.55
2022-12-01T11:44:50.943Z,16.58
2022-12-01T11:47:24.994Z,17.02
2022-12-01T11:49:58.853Z,16.98
2022-12-01T11:52:37.258Z,16.15
2022-12-01T11:55:25.051Z,17.05
2022-12-01T11:57:58.702Z,16.67
2022-12-01T12:00:33.125Z,15.40
2022-12-01T12:03:24.000Z,16.02
2022-12-01T12:06:39.496Z,14.45
2022-12-01T12:09:27.138Z,15.13
2022-12-01T12:12:08.620Z,15.60
2022-12-01T12:14:51.296Z,14.93
2022-12-01T12:17:39.590Z,15.70
2022-12-01T12:20:34.816Z,15.93
2022-12-01T12:23:25.000Z,14.13
2022-12-01T12:26:07.199Z,15.95
2022-12-01T12:28:55.181Z,16.08
2022-12-01T12:31:36.449Z,16.38
2022-12-01T12:34:24.210Z,16.38
2022-12-01T12:37:06.177Z,14.90
2022-12-01T12:39:55.272Z,14.95
2022-12-01T12:42:45.298Z,14.82
2022-12-01T12:45:26.462Z,17.60
2022-12-01T12:48:14.820Z,15.05
2022-12-01T12:50:52.634Z,15.80
2022-12-01T12:53:26.900Z,16.50
2022-12-01T12:56:02.751Z,16.05
2022-12-01T12:58:40.455Z,15.77
2022-12-01T13:01:19.276Z,14.93
2022-12-01T13:03:56.927Z,16.58
2022-12-01T13:06:31.430Z,15.30
2022-12-01T13:09:08.522Z,14.82
2022-12-01T13:11:45.558Z,15.10
2022-12-01T13:14:26.144Z,15.02
2022-12-01T13:17:01.930Z,14.48
2022-12-01T13:19:35.922Z,15.30
2022-12-01T13:22:09.127Z,15.05
2022-12-01T13:24:40.382Z,13.80
2022-12-01T13:27:21.477Z,13.75
2022-12-01T13:29:57.583Z,13.48
2022-12-01T13:32:35.316Z,12.80
2022-12-01T13:35:09.255Z,12.80
2022-12-01T13:37:42.082Z,12.18
2022-12-01T13:40:24.546Z,13.98
2022-12-01T13:43:04.213Z,11.60
2022-12-01T13:45:44.560Z,11.93
2022-12-01T13:48:31.993Z,11.65
2022-12-01T13:51:05.211Z,10.32
2022-12-01T13:53:38.455Z,9.75
2022-12-01T13:56:29.775Z,10.30
2022-12-01T13:59:00.844Z,9.40
2022-12-01T14:01:52.188Z,8.93
2022-12-01T14:04:42.502Z,8.65
2022-12-01T14:07:23.801Z,7.70
2022-12-01T14:09:56.473Z,7.68
2022-12-01T14:12:34.906Z,7.78
2022-12-01T14:15:24.411Z,8.20
2022-12-01T14:18:08.542Z,7.22
2022-12-01T14:20:48.797Z,7.78
2022-12-01T14:23:25.955Z,7.80
2022-12-01T14:26:06.602Z,7.00
2022-12-01T14:29:08.062Z,7.22
2022-12-01T14:32:23.954Z,7.50
2022-12-01T14:35:12.159Z,6.68
2022-12-01T14:37:53.781Z,6.88
2022-12-01T14:40:32.473Z,6.63
2022-12-01T14:43:18.746Z,6.25
2022-12-01T14:46:00.681Z,5.35
2022-12-01T14:48:40.834Z,5.05
2022-12-01T14:51:27.431Z,5.25
2022-12-01T14:54:00.499Z,5.07
2022-12-01T14:56:33.946Z,6.30
2022-12-01T14:59:17.033Z,5.05
2022-12-01T15:01:49.784Z,6.03
2022-12-01T15:04:22.364Z,7.32
2022-12-01T15:07:00.970Z,5.68
2022-12-01T15:09:35.190Z,7.40
2022-12-01T15:12:10.599Z,5.68
2022-12-01T15:14:52.188Z,6.13
2022-12-01T15:17:35.263Z,5.65
2022-12-01T15:20:07.772Z,6.43
2022-12-01T15:22:45.070Z,7.40
2022-12-01T15:25:19.549Z,6.15
2022-12-01T15:28:05.417Z,8.68
2022-12-01T15:30:37.159Z,12.63
2022-12-01T15:33:09.791Z,7.18
2022-12-01T15:35:41.550Z,7.35
2022-12-01T15:38:21.576Z,7.68
2022-12-01T15:41:21.094Z,6.25
2022-12-01T15:43:46.261Z,6.80
2022-12-01T15:46:19.936Z,6.38
2022-12-01T15:48:51.145Z,6.75
2022-12-01T15:51:28.570Z,6.35
2022-12-01T15:54:08.865Z,6.53
2022-12-01T15:56:42.227Z,6.40
2022-12-01T15:59:26.999Z,6.88
2022-12-01T16:01:58.966Z,7.10
2022-12-01T16:04:33.071Z,8.05
2022-12-01T16:07:09.026Z,8.32
2022-12-01T16:09:46.030Z,8.13
2022-12-01T16:12:27.144Z,7.55
2022-12-01T16:15:07.230Z,8.60
2022-12-01T16:17:47.507Z,9.02
2022-12-01T16:20:26.586Z,8.98
2022-12-01T16:23:01.810Z,9.23
2022-12-01T16:25:39.063Z,9.02
2022-12-01T16:28:23.238Z,8.75
2022-12-01T16:30:58.315Z,10.55
2022-12-01T16:33:31.734Z,10.85
2022-12-01T16:36:03.841Z,10.75
2022-12-01T16:38:36.659Z,9.48
2022-12-01T16:41:20.515Z,9.82
2022-12-01T16:44:20.282Z,8.95
2022-12-01T16:46:45.482Z,8.35
2022-12-01T16:49:17.109Z,10.18
2022-12-01T16:51:55.940Z,7.82
2022-12-01T16:54:28.855Z,7.93
2022-12-01T16:57:03.018Z,8.02
2022-12-01T16:59:34.442Z,7.38
2022-12-01T17:02:05.794Z,7.85
2022-12-01T17:04:37.682Z,8.30
2022-12-01T17:07:10.044Z,9.93
2022-12-01T17:09:41.330Z,8.85
2022-12-01T17:12:15.021Z,9.82
2022-12-01T17:14:47.924Z,10.15
2022-12-01T17:17:20.344Z,12.43
2022-12-01T17:19:52.493Z,13.63
2022-12-01T17:22:24.650Z,12.98
2022-12-01T17:24:56.033Z,11.35
2022-12-01T17:27:31.814Z,12.52
2022-12-01T17:30:07.298Z,12.45
2022-12-01T17:32:38.593Z,13.43
2022-12-01T17:35:14.715Z,14.30
2022-12-01T17:37:50.082Z,14.75
2022-12-01T17:40:28.541Z,14.38
2022-12-01T17:43:07.255Z,12.30
2022-12-01T17:45:42.294Z,12.23
2022-12-01T17:48:16.667Z,12.40
2022-12-01T17:50:47.885Z,13.32
2022-12-01T17:53:22.643Z,13.63
2022-12-01T17:55:54.567Z,13.52
2022-12-01T17:58:30.092Z,14.68
2022-12-01T18:01:02.984Z,13.82
2022-12-01T18:03:38.460Z,15.68
2022-12-01T18:06:11.104Z,14.95
2022-12-01T18:08:47.057Z,14.68
2022-12-01T18:11:21.013Z,15.18
2022-12-01T18:13:56.763Z,14.13
2022-12-01T18:16:32.362Z,15.43
2022-12-01T18:19:05.375Z,15.15
2022-12-01T18:21:37.054Z,14.52
2022-12-01T18:24:10.738Z,11.05
2022-12-01T18:26:46.927Z,11.50
2022-12-01T18:29:27.025Z,12.73
2022-12-01T18:32:00.087Z,22.08
2022-12-01T18:34:34.668Z,14.00
2022-12-01T18:37:06.902Z,16.65
2022-12-01T18:39:39.541Z,13.35
2022-12-01T18:42:11.017Z,13.07
2022-12-01T18:44:45.536Z,12.85
2022-12-01T18:47:17.007Z,11.98
2022-12-01T18:49:48.211Z,12.20
2022-12-01T18:52:21.401Z,13.40
2022-12-01T18:54:53.363Z,13.23
2022-12-01T18:57:24.714Z,13.75
2022-12-01T18:59:58.787Z,13.20
2022-12-01T19:02:30.118Z,14.02
2022-12-01T19:05:01.501Z,14.05
2022-12-01T19:07:33.235Z,15.25
2022-12-01T19:10:07.733Z,13.88
2022-12-01T19:12:41.200Z,14.23
2022-12-01T19:15:16.887Z,13.63
2022-12-01T19:17:48.657Z,14.98
2022-12-01T19:20:21.664Z,15.00
2022-12-01T19:22:53.126Z,15.40
2022-12-01T19:25:25.424Z,15.45
2022-12-01T19:27:56.267Z,14.40
2022-12-01T19:30:30.141Z,16.38
2022-12-01T19:33:01.993Z,15.13
2022-12-01T19:35:34.884Z,15.35
2022-12-01T19:38:07.053Z,15.48
2022-12-01T19:40:42.423Z,15.85
2022-12-01T19:43:13.402Z,16.75
2022-12-01T19:45:46.945Z,16.40
2022-12-01T19:48:18.539Z,15.68
2022-12-01T19:50:49.543Z,15.68
2022-12-01T19:53:20.490Z,17.75
2022-12-01T19:55:52.222Z,15.23
2022-12-01T19:58:26.153Z,16.00
2022-12-01T20:01:06.443Z,16.08
2022-12-01T20:03:38.057Z,15.75
2022-12-01T20:06:11.840Z,17.38
2022-12-01T20:08:43.585Z,16.73
2022-12-01T20:11:15.197Z,16.55
2022-12-01T20:13:48.402Z,16.52
2022-12-01T20:16:24.348Z,15.85
2022-12-01T20:18:56.296Z,16.03
2022-12-01T20:21:29.172Z,15.07
2022-12-01T20:24:02.139Z,13.80
2022-12-01T20:26:35.452Z,14.98
2022-12-01T20:29:09.021Z,16.50
2022-12-01T20:31:43.315Z,14.38
2022-12-01T20:34:18.236Z,14.50
2022-12-01T20:36:49.455Z,15.50
2022-12-01T20:39:21.409Z,15.07
2022-12-01T20:41:53.110Z,15.30
2022-12-01T20:44:24.979Z,15.52
2022-12-01T20:46:58.976Z,17.17
2022-12-01T20:49:30.119Z,16.65
2022-12-01T20:52:01.969Z,17.88
2022-12-01T20:54:32.883Z,16.33
2022-12-01T20:57:04.147Z,16.58
2022-12-01T20:59:35.847Z,15.90
2022-12-01T21:02:09.994Z,17.25
2022-12-01T21:04:41.537Z,18.45
2022-12-01T21:07:13.398Z,17.67
2022-12-01T21:09:44.748Z,16.92
2022-12-01T21:12:30.618Z,15.73
2022-12-01T21:15:09.327Z,17.27
2022-12-01T21:17:48.246Z,16.00
2022-12-01T21:20:27.329Z,17.55
2022-12-01T21:23:04.351Z,17.33
2022-12-01T21:28:19.019Z,16.15
2022-12-01T21:30:51.031Z,17.42
2022-12-01T21:33:35.412Z,16.52
2022-12-01T21:36:11.014Z,17.20
2022-12-01T21:38:42.598Z,17.77
2022-12-01T21:41:21.743Z,17.98
2022-12-01T21:43:52.785Z,15.80
2022-12-01T21:46:24.224Z,18.05
2022-12-01T21:48:59.675Z,16.42
2022-12-01T21:51:31.146Z,17.58
2022-12-01T21:54:02.542Z,16.95
2022-12-01T21:56:34.262Z,16.98
2022-12-01T21:59:15.044Z,16.65
2022-12-01T22:01:46.011Z,18.52
2022-12-01T22:04:25.383Z,17.70
2022-12-01T22:06:58.355Z,17.70
2022-12-01T22:09:32.980Z,17.95
2022-12-01T22:12:19.587Z,17.30
2022-12-01T22:14:51.199Z,18.97
2022-12-01T22:17:25.553Z,18.70
2022-12-01T22:20:01.378Z,18.50
2022-12-01T22:22:34.136Z,18.90
2022-12-01T22:25:19.211Z,17.75
2022-12-01T22:27:50.274Z,18.15
2022-12-01T22:30:24.217Z,17.40
2022-12-01T22:33:00.084Z,17.95
2022-12-01T22:35:45.862Z,18.50
2022-12-01T22:38:33.602Z,17.73
2022-12-01T22:41:07.732Z,17.77
2022-12-01T22:43:57.943Z,16.90
2022-12-01T22:46:36.205Z,17.00
2022-12-01T22:49:20.241Z,16.90
2022-12-01T22:51:54.964Z,16.30
2022-12-01T22:54:37.702Z,18.27
2022-12-01T22:57:29.042Z,17.27
2022-12-01T23:00:01.043Z,18.98
2022-12-01T23:02:36.737Z,20.05
2022-12-01T23:05:23.409Z,17.05
2022-12-01T23:07:59.418Z,17.50
2022-12-01T23:10:34.370Z,17.90
2022-12-01T23:13:17.927Z,19.10
2022-12-01T23:15:51.561Z,21.08
2022-12-01T23:18:25.772Z,18.88
2022-12-01T23:20:58.567Z,17.25
2022-12-01T23:23:34.988Z,18.00
2022-12-01T23:26:08.028Z,19.17
2022-12-01T23:28:41.566Z,18.63
2022-12-01T23:31:13.356Z,19.27
2022-12-01T23:33:44.856Z,18.15
2022-12-01T23:36:20.502Z,18.17
2022-12-01T23:38:59.337Z,20.75
2022-12-01T23:41:36.799Z,21.08
2022-12-01T23:44:17.405Z,20.98
2022-12-01T23:46:50.679Z,20.05
2022-12-01T23:49:25.922Z,19.48
2022-12-01T23:51:58.972Z,19.63
2022-12-01T23:54:35.221Z,20.52
2022-12-01T23:57:08.084Z,19.50
2022-12-01T23:59:41.412Z,19.63
